createdAt,value
2022-09-28T00:00:47.662Z,0.10
2022-09-28T00:03:14.353Z,0.10
2022-09-28T00:05:41.091Z,0.00
2022-09-28T00:08:07.799Z,0.10
2022-09-28T00:10:34.492Z,0.10
2022-09-28T00:13:01.745Z,0.50
2022-09-28T00:15:29.108Z,0.10
2022-09-28T00:17:55.788Z,0.03
2022-09-28T00:20:22.785Z,0.00
2022-09-28T00:22:49.446Z,0.10
2022-09-28T00:25:16.884Z,0.10
2022-09-28T00:27:43.587Z,0.10
2022-09-28T00:30:10.516Z,0.00
2022-09-28T00:32:37.173Z,0.10
2022-09-28T00:35:04.642Z,0.32
2022-09-28T00:37:31.463Z,0.20
2022-09-28T00:39:58.338Z,0.10
2022-09-28T00:42:26.545Z,0.10
2022-09-28T00:44:53.785Z,0.10
2022-09-28T00:47:52.306Z,0.10
2022-09-28T00:50:22.733Z,0.10
2022-09-28T00:52:54.960Z,0.20
2022-09-28T00:55:29.131Z,0.15
2022-09-28T00:57:59.435Z,0.10
2022-09-28T01:00:26.108Z,0.10
2022-09-28T01:02:53.063Z,0.50
2022-09-28T01:05:21.996Z,0.20
2022-09-28T01:07:48.939Z,0.00
2022-09-28T01:10:15.902Z,0.00
2022-09-28T01:12:42.597Z,0.35
2022-09-28T01:15:09.618Z,0.00
2022-09-28T01:17:51.694Z,0.10
2022-09-28T01:20:18.303Z,0.50
2022-09-28T01:23:06.399Z,0.10
2022-09-28T01:25:42.839Z,0.10
2022-09-28T01:28:14.824Z,1.20
2022-09-28T01:30:47.210Z,0.13
2022-09-28T01:33:22.503Z,0.00
2022-09-28T01:35:57.028Z,0.00
2022-09-28T01:38:30.962Z,0.00
2022-09-28T01:41:00.276Z,0.17
2022-09-28T01:43:28.614Z,0.00
2022-09-28T01:46:23.082Z,0.00
2022-09-28T01:48:57.590Z,0.00
2022-09-28T01:51:32.117Z,0.00
2022-09-28T01:54:05.131Z,0.60
2022-09-28T01:56:40.704Z,0.00
2022-09-28T01:59:14.533Z,0.00
2022-09-28T02:01:48.663Z,0.10
2022-09-28T02:04:20.743Z,0.00
2022-09-28T02:06:52.470Z,0.00
2022-09-28T02:09:28.467Z,0.10
2022-09-28T02:12:02.862Z,0.00
2022-09-28T02:14:30.646Z,0.00
2022-09-28T02:16:57.965Z,0.00
2022-09-28T02:19:27.392Z,0.00
2022-09-28T02:22:13.986Z,0.00
2022-09-28T02:24:48.422Z,0.20
2022-09-28T02:27:31.890Z,1.05
2022-09-28T02:29:58.618Z,0.00
2022-09-28T02:32:27.986Z,0.10
2022-09-28T02:34:56.013Z,0.00
2022-09-28T02:37:22.750Z,0.10
2022-09-28T02:39:49.477Z,0.10
2022-09-28T02:42:42.578Z,0.10
2022-09-28T02:45:10.245Z,0.00
2022-09-28T02:48:00.037Z,0.10
2022-09-28T02:50:39.553Z,0.10
2022-09-28T02:53:21.993Z,0.10
2022-09-28T02:56:20.557Z,0.10
2022-09-28T02:59:01.941Z,0.00
2022-09-28T03:02:04.302Z,0.00
2022-09-28T03:04:42.857Z,0.22
2022-09-28T03:07:24.382Z,0.00
2022-09-28T03:09:55.326Z,0.00
2022-09-28T03:12:24.349Z,0.00
2022-09-28T03:15:07.488Z,0.00
2022-09-28T03:17:34.222Z,0.00
2022-09-28T03:20:01.073Z,0.00
2022-09-28T03:22:27.725Z,0.10
2022-09-28T03:24:54.384Z,0.00
2022-09-28T03:27:21.062Z,0.03
2022-09-28T03:29:47.851Z,0.00
2022-09-28T03:32:14.510Z,0.10
2022-09-28T03:34:41.188Z,0.10
2022-09-28T03:37:07.840Z,0.10
2022-09-28T03:39:34.584Z,0.00
2022-09-28T03:42:01.276Z,0.10
2022-09-28T03:44:27.904Z,0.10
2022-09-28T03:46:54.545Z,0.10
2022-09-28T03:49:21.221Z,0.10
2022-09-28T03:51:47.908Z,0.10
2022-09-28T03:54:14.605Z,0.10
2022-09-28T03:56:41.481Z,0.00
2022-09-28T03:59:08.141Z,0.00
2022-09-28T04:01:34.860Z,0.20
2022-09-28T04:04:01.806Z,0.00
2022-09-28T04:06:28.548Z,0.30
2022-09-28T04:08:55.216Z,0.10
2022-09-28T04:11:21.876Z,0.15
2022-09-28T04:13:50.364Z,0.10
2022-09-28T04:16:18.478Z,0.20
2022-09-28T04:18:45.397Z,0.10
2022-09-28T04:21:14.165Z,0.10
2022-09-28T04:23:41.212Z,0.10
2022-09-28T04:26:16.437Z,0.10
2022-09-28T04:29:06.721Z,0.20
2022-09-28T04:31:42.974Z,0.00
2022-09-28T04:34:10.252Z,0.10
2022-09-28T04:36:37.068Z,0.00
2022-09-28T04:39:03.926Z,0.00
2022-09-28T04:41:30.577Z,0.10
2022-09-28T04:43:57.236Z,0.03
2022-09-28T04:46:23.892Z,0.10
2022-09-28T04:48:50.574Z,0.10
2022-09-28T04:51:17.208Z,0.10
2022-09-28T04:53:43.951Z,0.10
2022-09-28T04:56:12.687Z,0.10
2022-09-28T04:58:40.061Z,0.28
2022-09-28T05:01:12.266Z,0.30
2022-09-28T05:03:39.183Z,0.10
2022-09-28T05:06:07.544Z,0.30
2022-09-28T05:08:35.255Z,0.10
2022-09-28T05:11:04.879Z,0.10
2022-09-28T05:13:35.747Z,0.10
2022-09-28T05:16:05.435Z,0.20
2022-09-28T05:18:32.806Z,0.10
2022-09-28T05:20:59.759Z,0.10
2022-09-28T05:23:26.443Z,0.10
2022-09-28T05:25:53.227Z,0.10
2022-09-28T05:28:25.149Z,0.03
2022-09-28T05:30:52.218Z,0.10
2022-09-28T05:33:19.036Z,0.10
2022-09-28T05:35:48.758Z,0.10
2022-09-28T05:38:17.779Z,0.20
2022-09-28T05:40:44.428Z,0.10
2022-09-28T05:43:11.061Z,0.40
2022-09-28T05:45:37.726Z,0.10
2022-09-28T05:48:04.520Z,0.20
2022-09-28T05:50:31.278Z,1.67
2022-09-28T05:52:59.839Z,0.10
2022-09-28T05:55:26.559Z,0.10
2022-09-28T05:57:53.359Z,0.10
2022-09-28T06:00:20.042Z,0.00
2022-09-28T06:02:56.295Z,0.20
2022-09-28T06:05:23.467Z,0.10
2022-09-28T06:07:50.090Z,0.20
2022-09-28T06:10:16.790Z,0.10
2022-09-28T06:12:43.521Z,0.10
2022-09-28T06:15:10.378Z,0.10
2022-09-28T06:17:36.976Z,0.20
2022-09-28T06:20:03.745Z,0.30
2022-09-28T06:22:30.415Z,0.20
2022-09-28T06:24:57.007Z,0.10
2022-09-28T06:27:23.674Z,0.10
2022-09-28T06:29:50.405Z,0.00
2022-09-28T06:32:16.983Z,0.10
2022-09-28T06:34:43.648Z,0.10
2022-09-28T06:37:10.267Z,0.00
2022-09-28T06:39:36.894Z,0.80
2022-09-28T06:42:04.390Z,0.17
2022-09-28T06:44:32.252Z,0.20
2022-09-28T06:46:58.958Z,0.10
2022-09-28T06:49:27.703Z,0.10
2022-09-28T06:51:54.999Z,0.10
2022-09-28T06:54:25.555Z,0.10
2022-09-28T06:56:53.221Z,0.10
2022-09-28T06:59:20.313Z,0.10
2022-09-28T07:01:47.018Z,0.03
2022-09-28T07:04:13.798Z,0.10
2022-09-28T07:06:40.524Z,0.10
2022-09-28T07:09:22.143Z,0.50
2022-09-28T07:11:54.062Z,0.10
2022-09-28T07:14:43.045Z,0.40
2022-09-28T07:17:13.646Z,0.35
2022-09-28T07:19:41.178Z,0.10
2022-09-28T07:22:07.988Z,0.10
2022-09-28T07:24:34.682Z,0.15
2022-09-28T07:27:05.005Z,0.10
2022-09-28T07:29:31.628Z,0.10
2022-09-28T07:31:58.276Z,0.10
2022-09-28T07:34:24.931Z,0.30
2022-09-28T07:36:52.004Z,0.10
2022-09-28T07:39:18.693Z,0.20
2022-09-28T07:41:45.336Z,0.30
2022-09-28T07:44:11.973Z,0.10
2022-09-28T07:46:38.644Z,0.00
2022-09-28T07:49:09.728Z,0.10
2022-09-28T07:51:39.011Z,0.20
2022-09-28T07:54:06.488Z,0.10
2022-09-28T07:56:34.808Z,0.10
2022-09-28T07:59:01.361Z,0.00
2022-09-28T08:01:30.522Z,0.05
2022-09-28T08:03:57.202Z,0.00
2022-09-28T08:06:23.916Z,0.10
2022-09-28T08:08:52.785Z,0.10
2022-09-28T08:11:19.456Z,0.00
2022-09-28T08:13:46.556Z,0.00
2022-09-28T08:16:13.645Z,0.00
2022-09-28T08:18:40.441Z,0.00
2022-09-28T08:21:26.984Z,0.10
2022-09-28T08:23:53.670Z,0.05
2022-09-28T08:26:21.690Z,0.15
2022-09-28T08:28:48.423Z,0.00
2022-09-28T08:31:15.211Z,0.10
2022-09-28T08:33:42.113Z,0.10
2022-09-28T08:36:09.899Z,0.10
2022-09-28T08:38:36.525Z,0.10
2022-09-28T08:41:26.862Z,0.20
2022-09-28T08:44:10.100Z,0.10
2022-09-28T08:46:42.193Z,0.20
2022-09-28T08:49:33.225Z,0.20
2022-09-28T08:52:09.748Z,0.50
2022-09-28T08:54:57.834Z,0.10
2022-09-28T08:57:29.962Z,0.00
2022-09-28T08:59:59.660Z,0.10
2022-09-28T09:02:29.389Z,0.00
2022-09-28T09:04:57.944Z,0.00
2022-09-28T09:07:42.511Z,0.00
2022-09-28T09:10:49.041Z,0.80
2022-09-28T09:13:45.774Z,1.98
2022-09-28T09:16:20.055Z,1.48
2022-09-28T09:18:52.298Z,2.60
2022-09-28T09:21:46.296Z,1.50
2022-09-28T09:24:31.603Z,1.98
2022-09-28T09:27:07.011Z,1.25
2022-09-28T09:29:53.930Z,1.65
2022-09-28T09:32:21.594Z,2.08
2022-09-28T09:35:09.626Z,1.58
2022-09-28T09:37:58.613Z,2.00
2022-09-28T09:40:43.180Z,1.63
2022-09-28T09:43:32.990Z,0.90
2022-09-28T09:45:59.728Z,1.10
2022-09-28T09:48:33.758Z,1.17
2022-09-28T09:51:09.386Z,1.40
2022-09-28T09:53:43.570Z,1.10
2022-09-28T09:56:27.218Z,0.70
2022-09-28T09:58:59.698Z,2.10
2022-09-28T10:01:34.645Z,1.50
2022-09-28T10:04:02.453Z,1.20
2022-09-28T10:06:35.157Z,0.85
2022-09-28T10:09:06.219Z,1.15
2022-09-28T10:11:36.730Z,0.93
2022-09-28T10:14:04.350Z,1.45
2022-09-28T10:16:33.088Z,1.05
2022-09-28T10:19:00.842Z,1.00
2022-09-28T10:21:28.831Z,0.90
2022-09-28T10:23:57.606Z,0.70
2022-09-28T10:26:32.226Z,0.80
2022-09-28T10:29:02.119Z,1.00
2022-09-28T10:31:47.269Z,1.40
2022-09-28T10:34:17.084Z,1.60
2022-09-28T10:36:51.085Z,7.38
2022-09-28T10:39:30.993Z,3.85
2022-09-28T10:42:00.026Z,10.63
2022-09-28T10:44:27.350Z,10.65
2022-09-28T10:47:03.911Z,1.40
2022-09-28T10:49:45.820Z,2.72
2022-09-28T10:52:34.073Z,2.08
2022-09-28T10:55:01.901Z,5.00
2022-09-28T10:57:34.674Z,4.35
2022-09-28T11:00:02.543Z,3.50
2022-09-28T11:02:36.234Z,2.70
2022-09-28T11:05:06.297Z,1.33
2022-09-28T11:07:43.868Z,3.80
2022-09-28T11:10:21.030Z,3.47
2022-09-28T11:12:49.288Z,2.33
2022-09-28T11:15:20.122Z,1.50
2022-09-28T11:17:47.039Z,3.22
2022-09-28T11:20:34.044Z,1.47
2022-09-28T11:23:17.833Z,1.58
2022-09-28T11:25:57.216Z,1.30
2022-09-28T11:28:28.129Z,1.58
2022-09-28T11:30:55.025Z,2.33
2022-09-28T11:33:40.134Z,0.90
2022-09-28T11:36:14.207Z,0.80
2022-09-28T11:38:47.352Z,1.10
2022-09-28T11:41:17.178Z,1.02
2022-09-28T11:44:13.157Z,2.53
2022-09-28T11:47:20.347Z,0.93
2022-09-28T11:50:12.321Z,2.00
2022-09-28T11:52:46.095Z,2.57
2022-09-28T11:55:28.448Z,1.45
2022-09-28T11:58:10.096Z,1.52
2022-09-28T12:00:42.900Z,1.70
2022-09-28T12:03:40.579Z,1.10
2022-09-28T12:06:13.867Z,1.13
2022-09-28T12:08:46.067Z,1.52
2022-09-28T12:11:20.475Z,3.00
2022-09-28T12:13:51.399Z,1.80
2022-09-28T12:19:38.695Z,1.80
2022-09-28T12:22:30.292Z,1.40
2022-09-28T12:24:58.421Z,1.73
2022-09-28T12:27:47.944Z,1.83
2022-09-28T12:30:19.779Z,2.05
2022-09-28T12:33:15.779Z,1.92
2022-09-28T12:35:49.896Z,1.83
2022-09-28T12:38:24.556Z,1.73
2022-09-28T12:41:06.580Z,0.65
2022-09-28T12:43:43.471Z,1.88
2022-09-28T12:46:40.339Z,1.63
2022-09-28T12:52:44.526Z,1.90
2022-09-28T12:55:26.603Z,1.47
2022-09-28T12:58:06.523Z,0.70
2022-09-28T13:00:46.073Z,0.97
2022-09-28T13:03:13.227Z,1.13
2022-09-28T13:06:19.041Z,1.30
2022-09-28T13:09:03.841Z,1.13
2022-09-28T13:11:53.646Z,1.27
2022-09-28T13:14:51.219Z,0.80
2022-09-28T13:17:38.700Z,2.70
2022-09-28T13:20:35.823Z,1.60
2022-09-28T13:23:25.332Z,1.33
2022-09-28T13:25:59.527Z,2.00
2022-09-28T13:28:28.915Z,2.20
2022-09-28T13:33:37.791Z,1.05
2022-09-28T13:36:25.903Z,3.03
2022-09-28T13:38:53.827Z,1.63
2022-09-28T13:41:28.915Z,1.60
2022-09-28T13:44:11.553Z,1.60
2022-09-28T13:47:20.877Z,2.10
2022-09-28T13:50:11.552Z,3.35
2022-09-28T13:52:47.935Z,1.67
2022-09-28T13:55:53.895Z,1.37
2022-09-28T13:58:23.762Z,1.90
2022-09-28T14:00:56.106Z,1.30
2022-09-28T14:03:28.627Z,1.10
2022-09-28T14:06:09.542Z,1.92
2022-09-28T14:08:38.781Z,1.38
2022-09-28T14:11:40.590Z,2.47
2022-09-28T14:14:08.371Z,0.75
2022-09-28T14:16:36.848Z,3.25
2022-09-28T14:19:26.515Z,1.20
2022-09-28T14:21:56.467Z,2.10
2022-09-28T14:24:34.349Z,2.10
2022-09-28T14:27:24.238Z,1.60
2022-09-28T14:30:14.806Z,1.50
2022-09-28T14:32:48.058Z,1.10
2022-09-28T14:35:24.193Z,2.08
2022-09-28T14:38:17.419Z,2.00
2022-09-28T14:41:17.664Z,2.07
2022-09-28T14:43:45.262Z,1.67
2022-09-28T14:46:12.258Z,1.17
2022-09-28T14:49:01.778Z,0.82
2022-09-28T14:51:32.967Z,1.73
2022-09-28T14:54:08.005Z,1.90
2022-09-28T14:57:08.046Z,2.67
2022-09-28T14:59:43.431Z,2.75
2022-09-28T15:02:11.216Z,1.98
2022-09-28T15:04:43.342Z,1.90
2022-09-28T15:07:23.561Z,2.10
2022-09-28T15:09:54.349Z,2.10
2022-09-28T15:12:25.736Z,1.63
2022-09-28T15:14:58.831Z,2.70
2022-09-28T15:17:29.863Z,1.80
2022-09-28T15:20:08.659Z,6.78
2022-09-28T15:22:37.267Z,6.45
2022-09-28T15:25:13.547Z,3.60
2022-09-28T15:27:41.306Z,3.40
2022-09-28T15:30:16.396Z,1.90
2022-09-28T15:32:42.980Z,2.30
2022-09-28T15:35:14.387Z,2.20
2022-09-28T15:37:41.171Z,3.55
2022-09-28T15:40:12.987Z,1.97
2022-09-28T15:42:39.635Z,2.22
2022-09-28T15:45:27.890Z,2.45
2022-09-28T15:48:14.918Z,3.67
2022-09-28T15:50:53.045Z,2.88
2022-09-28T15:53:19.766Z,5.15
2022-09-28T15:55:50.341Z,2.67
2022-09-28T15:58:20.344Z,2.00
2022-09-28T16:00:49.273Z,1.65
2022-09-28T16:03:16.932Z,1.63
2022-09-28T16:05:50.867Z,2.08
2022-09-28T16:08:24.572Z,3.37
2022-09-28T16:10:59.929Z,2.42
2022-09-28T16:13:26.864Z,2.90
2022-09-28T16:15:58.014Z,1.70
2022-09-28T16:18:26.580Z,2.77
2022-09-28T16:20:56.168Z,1.83
2022-09-28T16:23:27.685Z,1.52
2022-09-28T16:26:00.355Z,2.55
2022-09-28T16:28:51.572Z,2.70
2022-09-28T16:31:19.215Z,3.00
2022-09-28T16:33:54.109Z,1.75
2022-09-28T16:36:22.755Z,2.72
2022-09-28T16:38:49.931Z,2.20
2022-09-28T16:41:22.059Z,1.53
2022-09-28T16:43:56.648Z,8.52
2022-09-28T16:46:29.705Z,3.50
2022-09-28T16:48:56.527Z,5.63
2022-09-28T16:51:24.187Z,3.08
2022-09-28T16:54:16.785Z,1.77
2022-09-28T16:56:43.501Z,1.73
2022-09-28T16:59:13.672Z,2.00
2022-09-28T17:01:43.693Z,3.75
2022-09-28T17:04:11.982Z,8.13
2022-09-28T17:06:38.793Z,2.90
2022-09-28T17:09:07.017Z,3.08
2022-09-28T17:11:33.797Z,2.53
2022-09-28T17:14:03.800Z,3.67
2022-09-28T17:17:02.322Z,27.33
2022-09-28T17:19:24.084Z,11.82
2022-09-28T17:21:52.108Z,5.97
2022-09-28T17:24:19.822Z,9.77
2022-09-28T17:26:49.466Z,10.70
2022-09-28T17:29:16.777Z,15.48
2022-09-28T17:31:44.765Z,10.73
2022-09-28T17:34:13.082Z,7.30
2022-09-28T17:36:42.162Z,3.10
2022-09-28T17:39:13.832Z,7.03
2022-09-28T17:41:40.969Z,3.17
2022-09-28T17:44:07.763Z,5.15
2022-09-28T17:46:37.636Z,4.72
2022-09-28T17:49:05.937Z,3.85
2022-09-28T17:51:37.403Z,7.93
2022-09-28T17:54:05.956Z,7.25
2022-09-28T17:56:33.545Z,9.43
2022-09-28T17:59:03.688Z,8.30
2022-09-28T18:01:34.114Z,6.50
2022-09-28T18:04:03.384Z,7.53
2022-09-28T18:06:33.418Z,7.35
2022-09-28T18:09:00.140Z,7.30
2022-09-28T18:11:28.014Z,3.13
2022-09-28T18:13:54.685Z,4.75
2022-09-28T18:16:22.692Z,5.35
2022-09-28T18:18:49.837Z,3.72
2022-09-28T18:21:16.916Z,3.40
2022-09-28T18:23:44.303Z,3.00
2022-09-28T18:26:12.401Z,2.72
2022-09-28T18:28:39.900Z,3.33
2022-09-28T18:31:08.372Z,5.30
2022-09-28T18:33:50.861Z,4.83
2022-09-28T18:36:17.953Z,3.80
2022-09-28T18:38:44.640Z,3.55
2022-09-28T18:41:15.427Z,4.53
2022-09-28T18:43:43.188Z,3.92
2022-09-28T18:46:10.921Z,4.90
2022-09-28T18:48:38.301Z,4.47
2022-09-28T18:51:09.392Z,5.57
2022-09-28T18:53:36.772Z,5.35
2022-09-28T18:56:08.082Z,5.78
2022-09-28T18:58:36.084Z,6.97
2022-09-28T19:01:28.396Z,4.97
2022-09-28T19:03:55.168Z,6.65
2022-09-28T19:06:22.225Z,4.22
2022-09-28T19:08:52.728Z,12.27
2022-09-28T19:11:19.824Z,9.30
2022-09-28T19:13:46.909Z,9.48
2022-09-28T19:16:18.426Z,8.32
2022-09-28T19:18:45.068Z,8.23
2022-09-28T19:21:13.884Z,7.50
2022-09-28T19:23:44.809Z,5.63
2022-09-28T19:26:17.885Z,4.70
2022-09-28T19:28:44.589Z,6.72
2022-09-28T19:31:12.218Z,5.25
2022-09-28T19:33:40.384Z,8.18
2022-09-28T19:36:08.843Z,5.78
2022-09-28T19:38:37.378Z,4.28
2022-09-28T19:41:12.699Z,4.65
2022-09-28T19:43:43.566Z,8.55
2022-09-28T19:46:11.665Z,10.60
2022-09-28T19:48:42.291Z,8.50
2022-09-28T19:51:09.763Z,7.63
2022-09-28T19:53:37.348Z,5.90
2022-09-28T19:56:05.446Z,5.17
2022-09-28T19:58:35.728Z,6.03
2022-09-28T20:01:06.825Z,8.53
2022-09-28T20:03:34.372Z,6.07
2022-09-28T20:06:02.057Z,4.20
2022-09-28T20:08:30.760Z,5.13
2022-09-28T20:10:59.672Z,4.80
2022-09-28T20:13:32.340Z,3.70
2022-09-28T20:16:08.868Z,5.85
2022-09-28T20:18:36.975Z,4.50
2022-09-28T20:21:09.516Z,5.20
2022-09-28T20:23:36.816Z,6.47
2022-09-28T20:26:04.732Z,7.32
2022-09-28T20:28:32.168Z,9.00
2022-09-28T20:31:07.981Z,8.70
2022-09-28T20:33:35.908Z,10.43
2022-09-28T20:36:12.851Z,7.90
2022-09-28T20:38:41.115Z,7.97
2022-09-28T20:41:08.695Z,9.32
2022-09-28T20:43:35.706Z,7.07
2022-09-28T20:46:03.771Z,7.68
2022-09-28T20:48:30.975Z,6.97
2022-09-28T20:51:00.744Z,5.93
2022-09-28T20:53:27.466Z,7.38
2022-09-28T20:55:59.102Z,6.18
2022-09-28T20:58:26.244Z,5.93
2022-09-28T21:00:53.155Z,6.60
2022-09-28T21:03:19.814Z,6.50
2022-09-28T21:05:46.450Z,5.93
2022-09-28T21:08:14.227Z,8.90
2022-09-28T21:10:44.339Z,8.60
2022-09-28T21:13:11.219Z,6.50
2022-09-28T21:15:37.877Z,7.88
2022-09-28T21:18:04.519Z,8.00
2022-09-28T21:20:31.175Z,7.13
2022-09-28T21:22:57.846Z,6.55
2022-09-28T21:25:24.542Z,6.68
2022-09-28T21:27:52.142Z,6.70
2022-09-28T21:30:19.950Z,6.82
2022-09-28T21:32:46.679Z,6.57
2022-09-28T21:35:13.433Z,9.07
2022-09-28T21:37:40.556Z,12.68
2022-09-28T21:40:09.699Z,8.95
2022-09-28T21:42:36.323Z,8.37
2022-09-28T21:45:03.238Z,8.07
2022-09-28T21:47:29.847Z,7.60
2022-09-28T21:49:56.506Z,10.68
2022-09-28T21:52:23.210Z,7.78
2022-09-28T21:54:49.875Z,10.32
2022-09-28T21:57:18.779Z,7.22
2022-09-28T21:59:45.525Z,7.72
2022-09-28T22:02:12.217Z,6.53
2022-09-28T22:04:38.841Z,6.20
2022-09-28T22:07:05.549Z,7.60
2022-09-28T22:09:32.255Z,7.28
2022-09-28T22:11:59.103Z,6.47
2022-09-28T22:14:27.173Z,7.60
2022-09-28T22:16:53.837Z,7.10
2022-09-28T22:19:20.664Z,7.07
2022-09-28T22:21:47.639Z,9.63
2022-09-28T22:24:14.345Z,12.23
2022-09-28T22:26:41.082Z,8.95
2022-09-28T22:29:09.386Z,10.40
2022-09-28T22:31:38.450Z,8.05
2022-09-28T22:34:05.745Z,7.25
2022-09-28T22:36:32.748Z,7.40
2022-09-28T22:39:00.306Z,6.70
2022-09-28T22:41:27.437Z,6.40
2022-09-28T22:43:55.045Z,5.80
2022-09-28T22:46:25.186Z,5.63
2022-09-28T22:48:55.642Z,5.53
2022-09-28T22:51:24.185Z,5.65
2022-09-28T22:53:50.840Z,6.70
2022-09-28T22:56:19.021Z,7.28
2022-09-28T22:58:46.370Z,8.95
2022-09-28T23:01:17.893Z,7.95
2022-09-28T23:03:44.901Z,9.67
2022-09-28T23:06:13.715Z,6.05
2022-09-28T23:08:40.360Z,6.53
2022-09-28T23:11:07.364Z,6.93
2022-09-28T23:13:35.015Z,6.23
2022-09-28T23:16:05.433Z,6.05
2022-09-28T23:18:34.680Z,6.95
2022-09-28T23:21:04.756Z,7.15
2022-09-28T23:23:32.181Z,5.95
2022-09-28T23:25:59.542Z,5.70
2022-09-28T23:28:27.147Z,7.00
2022-09-28T23:30:54.430Z,5.82
2022-09-28T23:33:21.810Z,8.00
2022-09-28T23:35:49.281Z,6.07
2022-09-28T23:38:18.111Z,6.40
2022-09-28T23:40:46.554Z,6.55
2022-09-28T23:43:14.072Z,6.18
2022-09-28T23:45:43.016Z,6.83
2022-09-28T23:48:09.817Z,6.28
2022-09-28T23:50:36.448Z,8.68
2022-09-28T23:53:03.104Z,6.60
2022-09-28T23:55:29.807Z,6.32
2022-09-28T23:57:58.065Z,6.28
